Time;durP1;ratioP1;P1;durP2;ratioP2;P2;SDS_P1;SDS_P2;PMS_P1;PMS_P2;Temp;Humidity;BMP_temperature;BMP_pressure;BME280_temperature;BME280_humidity;BME280_pressure;Samples;Min_cycle;Max_cycle;Signal;HPM_P1;HPM_P2
2021/11/18 00:01:52;;;;;;;11.13;5.80;;;11.80;61.30;;;;;;6252137;28;20086;-75
2021/11/18 00:04:54;;;;;;;12.13;6.22;;;11.80;61.40;;;;;;6258945;28;20125;-76
2021/11/18 00:07:55;;;;;;;12.07;6.40;;;11.80;61.50;;;;;;6269466;28;20037;-76
2021/11/18 00:11:03;;;;;;;10.27;5.45;;;11.80;61.50;;;;;;6272562;28;20037;-76
2021/11/18 00:14:04;;;;;;;11.55;6.22;;;11.80;61.50;;;;;;6277695;28;20040;-76
2021/11/18 00:17:04;;;;;;;12.40;6.25;;;11.80;61.50;;;;;;6246422;28;20475;-76
2021/11/18 00:20:10;;;;;;;13.60;6.45;;;11.80;61.50;;;;;;6248325;28;20108;-76
2021/11/18 00:23:11;;;;;;;12.25;6.38;;;11.80;61.40;;;;;;6248167;28;20037;-76
2021/11/18 00:26:13;;;;;;;12.02;5.85;;;11.90;61.40;;;;;;6241845;28;20064;-76
2021/11/18 00:29:14;;;;;;;13.60;6.65;;;11.90;61.30;;;;;;6260770;28;20037;-76
2021/11/18 00:32:15;;;;;;;13.05;7.45;;;11.90;61.30;;;;;;6272828;28;20036;-75
2021/11/18 00:35:24;;;;;;;17.10;6.97;;;11.90;61.30;;;;;;6267398;28;20057;-76
2021/11/18 00:38:25;;;;;;;11.35;5.88;;;11.80;61.30;;;;;;6267366;28;20036;-75
2021/11/18 00:41:26;;;;;;;12.77;7.20;;;11.80;61.40;;;;;;6245266;28;20029;-75
2021/11/18 00:44:27;;;;;;;11.63;6.03;;;11.90;61.50;;;;;;6256511;28;20466;-75
2021/11/18 00:47:28;;;;;;;14.77;7.28;;;11.90;61.60;;;;;;6257162;28;20038;-75
2021/11/18 00:50:36;;;;;;;13.82;7.43;;;11.90;61.60;;;;;;6245624;28;20044;-76
2021/11/18 00:53:43;;;;;;;13.98;7.88;;;11.90;61.70;;;;;;6248023;28;20413;-75
2021/11/18 00:56:50;;;;;;;12.32;6.72;;;11.90;61.80;;;;;;6257481;28;20037;-76
2021/11/18 00:59:51;;;;;;;14.50;7.35;;;11.80;61.80;;;;;;6240713;28;20533;-76
2021/11/18 01:02:55;;;;;;;13.50;6.50;;;11.80;61.80;;;;;;6259771;28;20466;-76
2021/11/18 01:05:56;;;;;;;11.73;6.20;;;11.80;61.90;;;;;;6268255;28;20389;-76
2021/11/18 01:08:57;;;;;;;15.95;7.88;;;11.80;61.90;;;;;;6285236;28;20116;-76
2021/11/18 01:11:58;;;;;;;13.82;7.15;;;11.80;62.30;;;;;;6260318;28;20029;-76
2021/11/18 01:14:59;;;;;;;11.65;6.35;;;11.80;62.00;;;;;;6259873;28;20470;-75
2021/11/18 01:18:01;;;;;;;14.35;6.93;;;11.80;62.00;;;;;;6248938;28;21071;-76
2021/11/18 01:21:06;;;;;;;15.38;6.95;;;11.90;62.00;;;;;;6264764;28;20044;-76
2021/11/18 01:24:09;;;;;;;11.90;6.80;;;11.90;62.00;;;;;;6268438;28;20037;-75
2021/11/18 01:27:41;;;;;;;12.88;6.32;;;11.90;62.00;;;;;;6260748;28;20120;-76
2021/11/18 01:30:53;;;;;;;13.10;6.22;;;11.80;62.10;;;;;;6251094;28;20036;-76
2021/11/18 01:33:58;;;;;;;10.93;6.05;;;11.80;62.10;;;;;;6264793;28;20075;-75
2021/11/18 01:37:01;;;;;;;12.85;5.82;;;11.80;62.10;;;;;;6261292;28;20043;-76
2021/11/18 01:40:05;;;;;;;13.85;6.35;;;11.80;62.10;;;;;;6255005;28;20124;-75
2021/11/18 01:43:09;;;;;;;13.32;5.75;;;11.80;62.10;;;;;;6240353;28;20106;-75
2021/11/18 01:46:14;;;;;;;9.65;5.72;;;11.80;62.00;;;;;;6255966;28;20042;-75
2021/11/18 01:49:15;;;;;;;11.98;6.13;;;11.80;62.10;;;;;;6245390;28;20478;-75
2021/11/18 01:52:23;;;;;;;12.32;6.28;;;11.80;62.10;;;;;;6238407;28;20054;-75
2021/11/18 01:55:25;;;;;;;16.33;6.47;;;11.80;62.20;;;;;;6251013;28;20037;-75
2021/11/18 01:58:26;;;;;;;10.02;5.60;;;11.70;62.20;;;;;;6272128;28;20481;-75
2021/11/18 02:01:53;;;;;;;13.38;7.25;;;11.70;62.30;;;;;;6172426;28;20045;-75
2021/11/18 02:05:20;;;;;;;11.20;5.80;;;11.80;62.50;;;;;;6182304;28;20065;-75
2021/11/18 02:08:24;;;;;;;11.63;6.00;;;11.70;62.50;;;;;;6171417;28;20479;-75
2021/11/18 02:11:46;;;;;;;11.93;6.38;;;11.70;62.40;;;;;;6178966;28;20038;-74
2021/11/18 02:14:49;;;;;;;14.40;6.30;;;11.80;62.60;;;;;;6178615;28;20472;-74
2021/11/18 02:17:50;;;;;;;11.90;6.03;;;11.70;62.60;;;;;;6177107;28;20049;-76
2021/11/18 02:20:58;;;;;;;12.65;5.65;;;11.70;63.50;;;;;;6166125;28;20035;-75
2021/11/18 02:24:04;;;;;;;12.23;6.20;;;11.70;62.80;;;;;;6185425;28;20034;-75
2021/11/18 02:27:06;;;;;;;13.68;6.55;;;11.70;62.80;;;;;;6170959;28;20101;-75
2021/11/18 02:30:09;;;;;;;13.10;6.05;;;11.70;62.70;;;;;;6175593;28;20043;-75
2021/11/18 02:33:11;;;;;;;14.18;6.80;;;11.70;62.80;;;;;;6178487;28;20113;-75
2021/11/18 02:40:14;;;;;;;12.02;5.97;;;11.70;62.80;;;;;;6263242;28;20068;-75
2021/11/18 02:43:17;;;;;;;11.20;5.80;;;11.70;63.80;;;;;;6253404;28;20435;-75
2021/11/18 02:46:19;;;;;;;11.68;5.47;;;11.70;63.00;;;;;;6241058;28;20163;-75
2021/11/18 02:49:20;;;;;;;14.55;7.00;;;11.60;62.90;;;;;;6272848;28;20370;-76
2021/11/18 02:52:28;;;;;;;13.43;6.68;;;11.60;63.00;;;;;;6259905;28;20068;-75
2021/11/18 02:55:31;;;;;;;;;;;11.60;63.10;;;;;;6257560;28;20025;-75
2021/11/18 02:58:34;;;;;;;11.38;6.45;;;11.50;63.10;;;;;;6264737;28;19950;-75
2021/11/18 03:01:39;;;;;;;11.80;6.07;;;11.50;63.10;;;;;;6261962;28;20052;-75
2021/11/18 03:04:41;;;;;;;14.70;6.80;;;11.50;63.30;;;;;;6239155;28;20030;-75
2021/11/18 03:07:43;;;;;;;14.65;6.57;;;11.50;63.40;;;;;;6256726;28;20060;-75
2021/11/18 03:10:45;;;;;;;14.98;6.32;;;11.40;63.40;;;;;;6264324;28;20021;-75
2021/11/18 03:13:47;;;;;;;13.88;6.57;;;11.50;63.50;;;;;;6263374;28;20092;-75
2021/11/18 03:16:49;;;;;;;12.82;6.55;;;11.50;63.50;;;;;;6227572;28;20049;-75
2021/11/18 03:19:56;;;;;;;12.15;6.22;;;11.50;63.50;;;;;;6269281;28;20109;-75
2021/11/18 03:22:58;;;;;;;12.60;5.90;;;11.50;63.40;;;;;;6260276;28;20046;-75
2021/11/18 03:25:58;;;;;;;13.60;6.85;;;11.50;63.50;;;;;;6261502;28;20037;-74
2021/11/18 03:29:01;;;;;;;18.02;7.18;;;11.50;63.50;;;;;;6266783;28;20104;-75
2021/11/18 03:32:04;;;;;;;11.00;5.90;;;11.50;63.50;;;;;;6286121;28;20063;-75
2021/11/18 03:35:06;;;;;;;11.07;5.57;;;11.50;63.50;;;;;;6257607;28;20033;-74
2021/11/18 03:38:08;;;;;;;14.45;6.60;;;11.50;63.50;;;;;;6250516;28;20462;-74
2021/11/18 03:41:10;;;;;;;16.88;7.60;;;11.60;63.60;;;;;;6248022;28;20044;-75
2021/11/18 03:44:17;;;;;;;12.00;5.97;;;11.60;63.50;;;;;;6267726;28;20135;-75
2021/11/18 03:47:19;;;;;;;12.20;6.15;;;11.60;63.50;;;;;;6267138;28;20115;-76
2021/11/18 03:50:21;;;;;;;18.95;6.78;;;11.60;63.30;;;;;;6270091;28;20037;-75
2021/11/18 03:53:24;;;;;;;15.48;7.07;;;11.60;63.30;;;;;;6281237;28;20357;-76
2021/11/18 03:56:38;;;;;;;10.77;6.30;;;11.60;63.30;;;;;;6265282;28;20029;-76
2021/11/18 03:59:42;;;;;;;13.60;6.68;;;11.70;63.30;;;;;;6261222;28;20113;-77
2021/11/18 04:02:50;;;;;;;16.10;6.95;;;11.60;63.20;;;;;;6262564;28;20045;-75
2021/11/18 04:06:01;;;;;;;13.18;6.60;;;11.70;63.30;;;;;;6241827;28;20260;-74
2021/11/18 04:09:03;;;;;;;17.42;6.97;;;11.70;63.30;;;;;;6261398;28;20052;-76
2021/11/18 04:12:07;;;;;;;14.30;7.00;;;11.70;63.30;;;;;;6260486;28;20029;-75
2021/11/18 04:15:10;;;;;;;12.68;6.53;;;11.70;63.20;;;;;;6244396;28;20048;-75
2021/11/18 04:18:11;;;;;;;13.18;6.53;;;11.70;63.10;;;;;;6260695;28;20048;-76
2021/11/18 04:21:14;;;;;;;12.60;6.90;;;11.80;63.20;;;;;;6263055;28;20057;-75
2021/11/18 04:24:19;;;;;;;12.63;6.15;;;11.80;63.10;;;;;;6242615;28;20038;-76
2021/11/18 04:27:20;;;;;;;15.77;6.88;;;11.80;62.90;;;;;;6251355;28;20026;-75
2021/11/18 04:30:32;;;;;;;13.40;6.35;;;11.70;62.90;;;;;;6241880;28;20056;-75
2021/11/18 04:33:53;;;;;;;13.43;6.25;;;11.70;63.10;;;;;;6260682;28;20362;-75
2021/11/18 04:36:55;;;;;;;12.88;5.88;;;11.70;63.10;;;;;;6263289;28;20114;-75
2021/11/18 04:39:57;;;;;;;17.02;7.40;;;11.70;63.20;;;;;;6257626;28;20034;-75
2021/11/18 04:43:01;;;;;;;12.98;6.65;;;11.70;63.30;;;;;;6244475;28;20116;-75
2021/11/18 04:46:04;;;;;;;11.60;6.38;;;11.70;63.40;;;;;;6239744;28;20025;-75
2021/11/18 04:49:05;;;;;;;11.30;6.00;;;11.70;63.30;;;;;;6260976;28;20045;-75
2021/11/18 04:52:07;;;;;;;14.40;7.25;;;11.70;63.30;;;;;;6273364;28;20041;-75
2021/11/18 04:55:12;;;;;;;14.00;7.32;;;11.70;63.30;;;;;;6268657;28;20127;-75
2021/11/18 04:58:13;;;;;;;13.27;6.80;;;11.70;63.30;;;;;;6287881;28;20036;-75
2021/11/18 05:01:16;;;;;;;15.23;6.90;;;11.70;63.30;;;;;;6251036;28;20037;-75
2021/11/18 05:04:18;;;;;;;14.32;6.75;;;11.70;63.30;;;;;;6240614;28;20033;-75
2021/11/18 05:07:20;;;;;;;16.98;6.85;;;11.70;63.30;;;;;;6247149;28;20465;-75
2021/11/18 05:10:22;;;;;;;11.95;6.25;;;11.70;63.30;;;;;;6231931;28;20033;-75
2021/11/18 05:13:28;;;;;;;17.65;7.38;;;11.70;63.30;;;;;;6260165;28;20470;-75
2021/11/18 05:16:33;;;;;;;10.98;6.35;;;11.70;63.30;;;;;;6257299;28;20040;-75
2021/11/18 05:19:35;;;;;;;16.15;7.30;;;11.70;63.30;;;;;;6242825;28;20419;-75
2021/11/18 05:22:36;;;;;;;11.85;6.65;;;11.80;63.40;;;;;;6259139;28;20033;-75
2021/11/18 05:25:37;;;;;;;15.65;7.20;;;11.80;63.30;;;;;;6266256;28;20032;-75
2021/11/18 05:28:38;;;;;;;14.32;6.82;;;11.80;63.40;;;;;;6257239;28;20454;-75
2021/11/18 05:31:42;;;;;;;14.32;7.05;;;11.80;63.40;;;;;;6279346;28;20037;-75
2021/11/18 05:35:07;;;;;;;11.07;6.22;;;11.80;63.50;;;;;;6215026;28;20048;-76
2021/11/18 05:38:09;;;;;;;15.70;7.32;;;11.80;63.50;;;;;;6196601;28;20045;-75
2021/11/18 05:41:16;;;;;;;14.38;7.50;;;11.80;63.50;;;;;;6233566;28;20026;-75
2021/11/18 05:44:17;;;;;;;14.07;7.22;;;11.70;63.40;;;;;;6207912;28;20200;-75
2021/11/18 05:47:19;;;;;;;14.43;6.55;;;11.80;63.50;;;;;;6215272;28;20037;-76
2021/11/18 05:50:23;;;;;;;14.43;6.53;;;11.80;63.40;;;;;;6219306;28;20460;-75
2021/11/18 05:53:33;;;;;;;17.45;6.70;;;11.80;63.30;;;;;;6209234;28;20357;-75
2021/11/18 05:56:35;;;;;;;18.40;7.45;;;11.80;63.20;;;;;;6218976;28;20035;-75
2021/11/18 05:59:37;;;;;;;16.45;7.45;;;11.80;63.90;;;;;;6200725;28;20490;-75
2021/11/18 06:02:38;;;;;;;18.75;8.25;;;11.80;63.10;;;;;;6219302;28;20061;-75
2021/11/18 06:05:39;;;;;;;13.73;7.43;;;11.80;63.00;;;;;;6201585;28;20818;-75
2021/11/18 06:08:43;;;;;;;17.42;7.47;;;11.90;63.00;;;;;;6232793;28;20383;-76
2021/11/18 06:11:46;;;;;;;14.90;7.80;;;11.80;62.80;;;;;;6199062;28;20048;-75
2021/11/18 06:14:52;;;;;;;14.30;7.47;;;11.80;62.80;;;;;;6259129;28;20060;-76
2021/11/18 06:17:53;;;;;;;17.08;8.07;;;11.90;62.80;;;;;;6249479;28;20033;-75
2021/11/18 06:20:54;;;;;;;17.17;7.30;;;11.90;62.70;;;;;;6239494;28;20044;-75
2021/11/18 06:23:57;;;;;;;15.07;7.25;;;11.90;62.60;;;;;;6248852;28;20033;-75
2021/11/18 06:26:59;;;;;;;13.40;6.55;;;12.00;62.70;;;;;;6249328;28;20045;-75
2021/11/18 06:30:10;;;;;;;14.25;6.88;;;12.00;62.70;;;;;;6249619;28;20026;-75
2021/11/18 06:33:12;;;;;;;14.63;6.97;;;12.00;62.60;;;;;;6222700;28;20037;-76
2021/11/18 06:36:14;;;;;;;15.30;7.22;;;12.00;62.70;;;;;;6265074;28;20398;-76
2021/11/18 06:39:15;;;;;;;18.48;7.00;;;12.10;62.80;;;;;;6251052;28;20048;-74
2021/11/18 06:42:18;;;;;;;17.20;6.38;;;12.10;62.80;;;;;;6260642;28;20029;-76
2021/11/18 06:45:33;;;;;;;15.38;7.57;;;12.00;62.60;;;;;;6243780;28;20042;-75
2021/11/18 06:48:54;;;;;;;19.85;8.15;;;12.00;62.80;;;;;;6266162;28;20041;-75
2021/11/18 06:51:55;;;;;;;18.40;8.70;;;11.90;63.10;;;;;;6262449;28;20040;-75
2021/11/18 06:54:57;;;;;;;15.07;7.68;;;11.90;63.30;;;;;;6284471;28;20041;-75
2021/11/18 06:57:58;;;;;;;15.82;8.07;;;11.90;63.40;;;;;;6288162;28;20069;-75
2021/11/18 07:01:00;;;;;;;18.33;7.93;;;11.90;63.40;;;;;;6269774;28;20128;-76
2021/11/18 07:04:02;;;;;;;17.98;8.10;;;11.90;63.60;;;;;;6264382;28;20037;-77
2021/11/18 07:07:04;;;;;;;16.92;8.10;;;11.90;63.60;;;;;;6251522;28;20512;-76
2021/11/18 07:10:07;;;;;;;15.90;7.88;;;12.00;63.70;;;;;;6261491;28;20366;-76
2021/11/18 07:13:25;;;;;;;17.55;7.50;;;11.90;63.70;;;;;;6262628;28;20187;-76
2021/11/18 07:16:27;;;;;;;16.00;7.97;;;11.90;63.80;;;;;;6281658;28;20044;-75
2021/11/18 07:19:28;;;;;;;17.45;7.40;;;12.00;63.90;;;;;;6257140;28;20430;-76
2021/11/18 07:22:30;;;;;;;19.38;7.88;;;12.00;63.90;;;;;;6271894;28;20144;-76
2021/11/18 07:25:46;;;;;;;14.73;8.20;;;12.00;63.80;;;;;;6263825;28;20033;-76
2021/11/18 07:28:48;;;;;;;22.35;8.43;;;12.10;63.80;;;;;;6241748;28;20132;-76
2021/11/18 07:31:52;;;;;;;19.15;7.80;;;12.10;63.80;;;;;;6261090;28;20040;-76
2021/11/18 07:34:52;;;;;;;18.55;7.50;;;12.10;63.60;;;;;;6269504;28;20383;-77
2021/11/18 07:38:00;;;;;;;19.05;8.82;;;12.10;63.50;;;;;;6254379;28;20052;-77
2021/11/18 07:41:10;;;;;;;17.30;7.28;;;12.10;63.60;;;;;;6269967;28;20119;-76
2021/11/18 07:44:13;;;;;;;18.00;8.13;;;12.10;63.50;;;;;;6266801;28;20029;-78
2021/11/18 07:47:49;;;;;;;19.02;8.75;;;12.10;63.50;;;;;;6262729;28;20032;-77
2021/11/18 07:50:53;;;;;;;17.33;8.05;;;12.10;63.50;;;;;;6257467;28;20048;-76
2021/11/18 07:53:58;;;;;;;19.63;9.18;;;12.20;63.40;;;;;;6267010;28;20085;-77
2021/11/18 07:57:01;;;;;;;20.15;8.30;;;12.10;63.30;;;;;;6239898;28;20370;-76
2021/11/18 08:00:06;;;;;;;21.50;8.25;;;12.10;63.20;;;;;;6255420;28;20040;-77
2021/11/18 08:03:20;;;;;;;20.05;8.77;;;12.20;63.30;;;;;;6265947;28;20032;-76
2021/11/18 08:06:48;;;;;;;14.63;7.63;;;12.20;63.20;;;;;;6242636;28;20038;-77
2021/11/18 08:09:52;;;;;;;14.73;8.00;;;12.20;63.20;;;;;;6287004;28;20433;-76
2021/11/18 08:12:53;;;;;;;21.80;8.00;;;12.30;63.20;;;;;;6274949;28;20049;-76
2021/11/18 08:15:54;;;;;;;17.80;7.57;;;12.20;63.00;;;;;;6283775;28;20049;-76
2021/11/18 08:18:56;;;;;;;17.58;8.93;;;12.30;63.10;;;;;;6253165;28;20469;-76
2021/11/18 08:21:58;;;;;;;19.30;8.63;;;12.30;63.00;;;;;;6254547;28;20068;-76
2021/11/18 08:25:03;;;;;;;16.58;8.02;;;12.30;63.00;;;;;;6270717;28;20470;-76
2021/11/18 08:28:13;;;;;;;18.38;8.30;;;12.30;62.90;;;;;;6241652;28;20399;-76
2021/11/18 08:31:15;;;;;;;16.55;7.68;;;12.30;62.90;;;;;;6274057;28;20044;-76
2021/11/18 08:34:37;;;;;;;20.50;8.48;;;12.40;62.90;;;;;;6262349;28;20036;-76
2021/11/18 08:37:43;;;;;;;16.55;8.68;;;12.40;62.80;;;;;;6268947;28;20474;-76
2021/11/18 08:40:54;;;;;;;17.77;8.02;;;12.40;62.80;;;;;;6236338;28;20034;-76
2021/11/18 08:43:56;;;;;;;21.70;9.05;;;12.50;62.80;;;;;;6242448;28;20203;-76
2021/11/18 08:46:59;;;;;;;17.50;8.05;;;12.50;62.70;;;;;;6284421;28;20500;-76
2021/11/18 08:50:06;;;;;;;14.82;7.80;;;12.50;62.60;;;;;;6268291;28;20029;-76
2021/11/18 08:53:10;;;;;;;23.10;9.43;;;12.60;62.60;;;;;;6274275;28;20044;-76
2021/11/18 08:56:13;;;;;;;21.98;8.98;;;12.60;62.60;;;;;;6284074;28;20036;-76
2021/11/18 08:59:14;;;;;;;23.60;9.02;;;12.60;62.60;;;;;;6284716;28;20342;-77
2021/11/18 09:02:22;;;;;;;19.27;8.43;;;12.60;62.50;;;;;;6249937;28;20025;-76
2021/11/18 09:05:25;;;;;;;21.20;9.57;;;12.60;62.60;;;;;;6260607;28;20043;-76
2021/11/18 09:08:26;;;;;;;20.35;9.07;;;12.60;62.40;;;;;;6252661;28;20067;-75
2021/11/18 09:11:36;;;;;;;17.50;8.63;;;12.70;62.30;;;;;;6229935;28;20026;-76
2021/11/18 09:14:40;;;;;;;18.63;8.60;;;12.70;62.00;;;;;;6235671;28;20041;-77
2021/11/18 09:17:41;;;;;;;20.92;9.13;;;12.70;61.90;;;;;;6228982;28;20112;-76
2021/11/18 09:21:02;;;;;;;15.63;7.57;;;12.70;61.80;;;;;;6258243;28;20482;-77
2021/11/18 09:24:10;;;;;;;23.83;9.15;;;12.80;61.60;;;;;;6264804;28;20069;-77
2021/11/18 09:27:16;;;;;;;16.63;7.72;;;12.90;61.40;;;;;;6260977;28;20029;-75
2021/11/18 09:30:30;;;;;;;17.45;8.45;;;12.90;61.20;;;;;;6258542;28;20103;-76
2021/11/18 09:33:31;;;;;;;28.17;11.07;;;12.90;61.10;;;;;;6259260;28;20356;-77
2021/11/18 09:36:32;;;;;;;23.05;9.55;;;12.90;60.90;;;;;;6245166;28;20236;-76
2021/11/18 09:39:37;;;;;;;23.23;9.13;;;12.90;60.90;;;;;;6253436;28;20051;-75
2021/11/18 09:43:14;;;;;;;16.70;8.20;;;13.00;60.90;;;;;;6251717;28;20497;-76
2021/11/18 09:46:25;;;;;;;20.85;8.60;;;13.00;60.70;;;;;;6250797;28;20130;-76
2021/11/18 09:49:49;;;;;;;20.25;9.00;;;13.10;60.50;;;;;;6248695;28;20087;-76
2021/11/18 09:53:23;;;;;;;16.88;9.32;;;12.90;60.20;;;;;;6278893;28;20044;-76
2021/11/18 09:56:55;;;;;;;22.98;10.40;;;13.00;60.10;;;;;;6238171;28;20044;-75
2021/11/18 10:00:05;;;;;;;22.33;8.60;;;13.00;59.70;;;;;;6225882;28;20040;-76
2021/11/18 10:03:46;;;;;;;38.42;10.85;;;13.00;59.90;;;;;;6255842;28;20033;-76
2021/11/18 10:06:55;;;;;;;19.45;9.32;;;13.00;59.90;;;;;;6263421;28;20060;-77
2021/11/18 10:10:11;;;;;;;17.00;8.57;;;12.90;59.70;;;;;;6237817;28;20113;-75
2021/11/18 10:13:21;;;;;;;18.25;8.68;;;12.90;59.70;;;;;;6257119;28;20470;-77
2021/11/18 10:16:31;;;;;;;19.52;9.10;;;12.90;59.70;;;;;;6291768;28;20037;-77
2021/11/18 10:19:36;;;;;;;19.23;8.93;;;12.90;59.70;;;;;;6262160;28;20354;-76
2021/11/18 10:22:42;;;;;;;17.90;9.15;;;12.90;59.60;;;;;;6257853;28;20093;-76
2021/11/18 10:25:49;;;;;;;18.65;9.20;;;12.80;59.60;;;;;;6262453;28;20454;-76
2021/11/18 10:29:01;;;;;;;25.17;10.18;;;12.90;59.60;;;;;;6258869;28;20055;-76
2021/11/18 10:32:06;;;;;;;18.88;8.68;;;12.90;59.50;;;;;;6266635;28;20045;-76
2021/11/18 10:35:24;;;;;;;18.50;9.25;;;12.90;59.40;;;;;;6247752;28;20100;-76
2021/11/18 10:38:40;;;;;;;20.45;9.13;;;12.90;59.50;;;;;;6249997;28;20048;-76
2021/11/18 10:41:55;;;;;;;41.38;17.13;;;13.00;59.60;;;;;;6263862;28;20052;-75
2021/11/18 10:45:07;;;;;;;33.58;16.23;;;13.00;59.40;;;;;;6247719;28;20033;-76
2021/11/18 10:48:28;;;;;;;31.48;13.38;;;13.10;59.30;;;;;;6244538;28;20038;-76
2021/11/18 10:51:55;;;;;;;38.15;14.00;;;13.20;59.20;;;;;;6243164;28;20049;-76
2021/11/18 10:55:18;;;;;;;26.77;11.32;;;13.30;59.00;;;;;;6252985;28;20033;-76
2021/11/18 10:58:25;;;;;;;31.75;12.73;;;13.30;58.80;;;;;;6267804;28;20041;-76
2021/11/18 11:01:27;;;;;;;22.27;10.57;;;13.30;58.80;;;;;;6263520;28;20037;-76
2021/11/18 11:04:37;;;;;;;29.63;11.52;;;13.30;58.80;;;;;;6250824;28;20033;-76
2021/11/18 11:07:42;;;;;;;21.75;9.68;;;13.30;58.50;;;;;;6246527;28;20069;-77
2021/11/18 11:10:47;;;;;;;22.75;9.07;;;13.40;58.60;;;;;;6264800;28;20048;-76
2021/11/18 11:14:32;;;;;;;22.75;10.48;;;13.50;58.60;;;;;;6264589;28;20053;-78
2021/11/18 11:17:45;;;;;;;33.45;14.65;;;13.50;58.60;;;;;;6141087;28;20501;-76
2021/11/18 11:21:07;;;;;;;34.90;14.57;;;13.60;58.30;;;;;;6145078;28;20510;-76
2021/11/18 11:24:26;;;;;;;25.27;11.02;;;13.60;58.40;;;;;;6144746;28;20039;-77
2021/11/18 11:27:31;;;;;;;31.50;13.30;;;13.60;58.30;;;;;;6142011;28;20044;-77
2021/11/18 11:30:56;;;;;;;32.35;11.85;;;13.70;58.30;;;;;;6134590;28;20114;-75
2021/11/18 11:34:13;;;;;;;22.90;10.45;;;13.70;58.20;;;;;;6138424;28;20051;-77
2021/11/18 11:37:34;;;;;;;23.55;10.98;;;13.70;58.10;;;;;;6116832;29;20028;-75
2021/11/18 11:41:06;;;;;;;23.77;9.57;;;13.70;58.20;;;;;;6105176;29;20063;-77
2021/11/18 11:44:48;;;;;;;22.30;10.32;;;13.70;58.10;;;;;;6116896;28;20126;-76
2021/11/18 11:47:49;;;;;;;35.85;13.98;;;13.80;58.20;;;;;;6133710;28;20043;-75
2021/11/18 11:51:07;;;;;;;30.55;11.95;;;13.80;58.20;;;;;;6130169;28;20403;-77
2021/11/18 11:54:12;;;;;;;24.38;11.98;;;13.80;58.20;;;;;;6161111;28;20121;-76
2021/11/18 11:57:37;;;;;;;25.73;10.02;;;13.80;58.10;;;;;;6208473;28;20057;-77
2021/11/18 12:00:48;;;;;;;23.70;10.45;;;13.80;57.90;;;;;;6172715;28;20332;-76
2021/11/18 12:03:54;;;;;;;22.92;10.00;;;13.80;57.80;;;;;;6184479;28;20518;-76
2021/11/18 12:07:16;;;;;;;26.38;12.07;;;13.70;57.80;;;;;;6172367;28;20035;-77
2021/11/18 12:11:00;;;;;;;33.50;12.65;;;13.80;57.70;;;;;;6199423;28;20041;-76
2021/11/18 12:14:37;;;;;;;28.88;10.38;;;13.80;57.60;;;;;;6195696;28;20067;-76
2021/11/18 12:17:51;;;;;;;17.55;8.30;;;13.80;57.60;;;;;;6149005;28;20050;-75
2021/11/18 12:20:54;;;;;;;23.45;7.95;;;13.80;57.40;;;;;;6166117;28;20159;-77
2021/11/18 12:24:03;;;;;;;14.18;7.32;;;13.80;57.20;;;;;;6133740;28;20114;-77
2021/11/18 12:27:19;;;;;;;19.33;9.02;;;13.70;57.00;;;;;;6144072;28;20059;-76
2021/11/18 12:30:30;;;;;;;22.15;10.10;;;13.70;56.90;;;;;;6135379;28;20046;-77
2021/11/18 12:33:42;;;;;;;18.33;8.90;;;13.70;57.00;;;;;;6135063;28;20135;-76
2021/11/18 12:37:07;;;;;;;22.58;9.70;;;13.70;57.00;;;;;;6138407;28;20054;-75
2021/11/18 12:40:42;;;;;;;18.45;8.75;;;13.80;56.90;;;;;;6143595;28;20483;-76
2021/11/18 12:43:49;;;;;;;17.58;8.85;;;13.80;56.80;;;;;;6104430;28;20050;-76
2021/11/18 12:47:02;;;;;;;17.75;7.90;;;13.90;56.70;;;;;;6143306;28;20086;-76
2021/11/18 12:50:41;;;;;;;19.63;8.52;;;13.90;56.40;;;;;;6137130;28;20361;-75
2021/11/18 12:53:50;;;;;;;13.98;6.72;;;13.90;56.40;;;;;;6191192;28;20041;-76
2021/11/18 12:57:11;;;;;;;14.35;6.88;;;13.90;56.10;;;;;;6229421;28;20358;-75
2021/11/18 13:00:19;;;;;;;14.63;6.90;;;13.80;55.90;;;;;;6221195;28;20049;-75
2021/11/18 13:03:47;;;;;;;14.15;7.78;;;13.80;56.00;;;;;;6210722;28;20511;-75
2021/11/18 13:06:49;;;;;;;20.50;8.25;;;13.70;56.00;;;;;;6221937;28;20193;-75
2021/11/18 13:10:09;;;;;;;20.08;8.88;;;13.70;55.90;;;;;;6211327;28;20033;-77
2021/11/18 13:13:21;;;;;;;18.75;8.15;;;13.70;56.00;;;;;;6232392;28;20041;-76
2021/11/18 13:16:29;;;;;;;47.05;17.83;;;13.70;56.00;;;;;;6270941;28;20111;-76
2021/11/18 13:19:36;;;;;;;;;;;13.70;56.10;;;;;;6261939;28;20078;-76
2021/11/18 13:22:46;;;;;;;17.48;7.82;;;13.70;56.10;;;;;;6263486;28;20047;-76
2021/11/18 13:25:50;;;;;;;17.25;7.68;;;13.70;56.10;;;;;;6242827;28;20184;-76
2021/11/18 13:29:00;;;;;;;18.13;8.30;;;13.80;56.20;;;;;;6237177;28;20045;-77
2021/11/18 13:32:01;;;;;;;20.35;9.70;;;13.80;56.20;;;;;;6264371;28;20045;-75
2021/11/18 13:35:11;;;;;;;18.30;7.95;;;13.80;56.20;;;;;;6253674;28;20044;-76
2021/11/18 13:38:24;;;;;;;22.30;10.50;;;13.90;56.20;;;;;;6232069;28;20469;-77
2021/11/18 13:41:53;;;;;;;30.20;12.75;;;13.90;56.10;;;;;;6259740;28;20033;-76
2021/11/18 13:45:10;;;;;;;23.23;10.70;;;14.00;56.10;;;;;;6247233;28;20028;-76
2021/11/18 13:48:17;;;;;;;15.27;7.13;;;14.00;55.80;;;;;;6248349;28;20025;-76
2021/11/18 13:51:39;;;;;;;13.98;7.72;;;14.00;55.80;;;;;;6258668;28;20123;-76
2021/11/18 13:54:53;;;;;;;15.63;7.82;;;14.10;55.80;;;;;;6258236;28;20112;-76
2021/11/18 13:57:58;;;;;;;20.13;9.05;;;14.10;55.60;;;;;;6248357;28;20128;-76
2021/11/18 14:01:06;;;;;;;15.00;7.35;;;14.10;55.70;;;;;;6257913;28;20334;-76
2021/11/18 14:04:25;;;;;;;15.20;7.05;;;14.10;55.70;;;;;;6247531;28;20037;-77
2021/11/18 14:07:29;;;;;;;13.23;7.25;;;14.10;55.60;;;;;;6261863;28;20044;-77
2021/11/18 14:10:37;;;;;;;14.63;7.72;;;14.20;55.50;;;;;;6244945;28;20100;-76
2021/11/18 14:13:38;;;;;;;20.60;8.50;;;14.20;55.50;;;;;;6259688;28;20466;-77
2021/11/18 14:25:25;;;;;;;20.75;8.52;;;14.20;55.70;;;;;;6244569;28;20034;-76
2021/11/18 14:28:49;;;;;;;16.48;7.90;;;14.20;55.70;;;;;;6247959;28;20116;-76
2021/11/18 14:31:56;;;;;;;18.52;8.82;;;14.10;55.60;;;;;;6242853;28;20037;-76
2021/11/18 14:35:20;;;;;;;16.38;8.55;;;14.10;55.70;;;;;;6243500;28;20366;-77
2021/11/18 14:38:53;;;;;;;23.48;9.23;;;14.10;55.70;;;;;;6267278;28;20041;-76
2021/11/18 14:42:28;;;;;;;14.10;7.38;;;14.10;55.80;;;;;;6273757;28;20436;-77
2021/11/18 14:45:32;;;;;;;17.27;7.65;;;14.00;55.90;;;;;;6228879;28;20067;-76
2021/11/18 14:48:45;;;;;;;18.80;8.95;;;14.00;56.00;;;;;;6208992;28;20092;-77
2021/11/18 14:51:50;;;;;;;20.58;9.52;;;14.00;56.20;;;;;;6212781;28;20434;-77
2021/11/18 14:55:25;;;;;;;17.52;8.18;;;14.00;56.30;;;;;;6201105;28;20092;-76
2021/11/18 14:58:26;;;;;;;18.65;8.65;;;14.00;56.30;;;;;;6205364;28;20038;-75
2021/11/18 15:02:00;;;;;;;17.38;8.65;;;13.90;56.30;;;;;;6217607;28;20049;-76
2021/11/18 15:05:06;;;;;;;21.15;9.15;;;13.90;56.50;;;;;;6138896;29;20035;-76
2021/11/18 15:08:07;;;;;;;30.80;10.30;;;13.80;56.40;;;;;;6115449;29;20053;-75
2021/11/18 15:11:09;;;;;;;15.60;7.47;;;13.80;56.50;;;;;;6129030;29;20039;-76
2021/11/18 15:14:12;;;;;;;17.48;8.05;;;13.80;56.50;;;;;;6136883;29;20462;-75
2021/11/18 15:17:15;;;;;;;14.15;7.00;;;13.80;56.50;;;;;;6109724;29;20048;-78
2021/11/18 15:20:17;;;;;;;24.35;10.30;;;13.80;56.40;;;;;;6118071;29;20477;-76
2021/11/18 15:23:20;;;;;;;20.58;8.30;;;13.80;56.40;;;;;;6146171;28;20309;-75
2021/11/18 15:26:24;;;;;;;16.15;8.05;;;13.80;56.40;;;;;;6167537;28;20042;-76
2021/11/18 15:29:35;;;;;;;15.57;7.13;;;13.80;56.30;;;;;;6125487;28;20122;-75
2021/11/18 15:32:36;;;;;;;14.85;6.80;;;13.80;56.20;;;;;;6167360;28;20131;-75
2021/11/18 15:35:38;;;;;;;14.65;7.05;;;13.80;56.10;;;;;;6168458;28;20498;-76
2021/11/18 15:38:41;;;;;;;15.68;7.20;;;13.80;56.00;;;;;;6169157;28;20070;-75
2021/11/18 15:41:47;;;;;;;11.20;5.95;;;13.80;55.90;;;;;;6238105;28;20037;-76
2021/11/18 15:44:50;;;;;;;16.65;7.35;;;13.80;56.00;;;;;;6259774;28;20132;-77
2021/11/18 15:47:52;;;;;;;16.10;7.15;;;13.80;55.90;;;;;;6253787;28;20102;-76
2021/11/18 15:50:56;;;;;;;18.88;7.80;;;13.80;55.90;;;;;;6251175;28;20127;-75
2021/11/18 15:53:57;;;;;;;13.13;7.15;;;13.80;56.00;;;;;;6267622;28;20025;-76
2021/11/18 15:56:58;;;;;;;12.45;6.63;;;13.70;56.00;;;;;;6254242;28;20068;-76
2021/11/18 16:00:03;;;;;;;15.50;6.75;;;13.80;55.80;;;;;;6251580;28;20061;-77
2021/11/18 16:03:14;;;;;;;18.27;8.38;;;13.70;56.10;;;;;;6238503;28;20763;-75
2021/11/18 16:06:16;;;;;;;16.60;7.15;;;13.70;56.20;;;;;;6263249;28;20037;-76
2021/11/18 16:09:19;;;;;;;14.32;6.30;;;13.70;56.40;;;;;;6266334;28;20041;-76
2021/11/18 16:12:32;;;;;;;15.82;7.10;;;13.70;56.40;;;;;;6270425;28;20116;-75
2021/11/18 16:15:41;;;;;;;14.75;7.60;;;13.70;56.50;;;;;;6267795;28;20184;-77
2021/11/18 16:18:43;;;;;;;18.95;7.53;;;13.70;56.50;;;;;;6262778;28;20042;-75